Time;durP1;ratioP1;P1;durP2;ratioP2;P2;SDS_P1;SDS_P2;PMS_P1;PMS_P2;Temp;Humidity;BMP_temperature;BMP_pressure;BME280_temperature;BME280_humidity;BME280_pressure;Samples;Min_cycle;Max_cycle;Signal;HPM_P1;HPM_P2
2023/09/14 00:00:33;;;;;;;7.55;3.38;;;;;;;20.60;61.12;98345.81;5090762;28;20199;-56
2023/09/14 00:02:59;;;;;;;6.13;3.03;;;;;;;20.58;61.07;98346.97;5090514;28;20171;-56
2023/09/14 00:05:25;;;;;;;7.40;2.78;;;;;;;20.49;60.82;98312.00;5090868;28;20263;-56
2023/09/14 00:07:50;;;;;;;8.32;3.63;;;;;;;20.63;61.10;98339.41;5090688;28;20322;-56
2023/09/14 00:10:16;;;;;;;10.38;3.28;;;;;;;20.60;61.41;98343.19;5090618;28;20172;-56
2023/09/14 00:12:41;;;;;;;9.85;3.30;;;;;;;20.66;61.70;98345.13;5090447;28;20206;-56
2023/09/14 00:15:07;;;;;;;9.85;3.42;;;;;;;20.65;61.27;98353.19;5090605;28;20294;-56
2023/09/14 00:17:32;;;;;;;5.18;3.47;;;;;;;20.42;61.35;98318.94;5090645;28;20638;-56
2023/09/14 00:19:59;;;;;;;5.85;3.40;;;;;;;20.54;61.37;98343.03;5090648;28;20183;-56
2023/09/14 00:22:25;;;;;;;5.20;2.83;;;;;;;20.54;61.57;98340.41;5091357;28;20182;-56
2023/09/14 00:24:50;;;;;;;9.23;3.53;;;;;;;20.47;61.33;98335.00;5094750;28;20172;-56
2023/09/14 00:27:15;;;;;;;12.20;3.05;;;;;;;20.57;61.05;98324.31;5094357;28;20631;-56
2023/09/14 00:29:41;;;;;;;5.65;3.10;;;;;;;20.72;60.89;98354.16;5051716;28;20272;-56
2023/09/14 00:32:06;;;;;;;8.77;3.28;;;;;;;20.36;62.27;98334.53;5051561;28;20239;-56
2023/09/14 00:34:32;;;;;;;4.35;3.03;;;;;;;20.46;61.42;98327.28;5051769;28;20230;-56
2023/09/14 00:36:57;;;;;;;4.68;3.40;;;;;;;20.75;59.95;98341.47;5051746;28;20344;-56
2023/09/14 00:39:22;;;;;;;11.20;3.45;;;;;;;20.70;61.27;98338.53;5051710;28;20188;-55
2023/09/14 00:41:48;;;;;;;10.52;3.28;;;;;;;20.63;61.40;98339.41;5051853;28;20291;-56
2023/09/14 00:44:13;;;;;;;11.73;3.35;;;;;;;20.53;61.01;98307.22;5051706;28;20216;-56
2023/09/14 00:46:41;;;;;;;7.25;3.42;;;;;;;20.72;60.73;98356.78;5051471;28;20185;-56
2023/09/14 00:49:06;;;;;;;6.47;3.50;;;;;;;20.52;62.09;98352.91;5051515;28;20282;-55
2023/09/14 00:51:32;;;;;;;7.55;3.13;;;;;;;20.00;63.67;98312.25;5051488;28;20192;-56
2023/09/14 00:53:59;;;;;;;5.55;2.78;;;;;;;20.00;64.05;98326.19;5051400;28;20196;-56
2023/09/14 00:56:26;;;;;;;3.17;2.80;;;;;;;20.14;64.28;98357.06;5051425;28;20220;-56
2023/09/14 00:58:54;;;;;;;11.00;3.85;;;;;;;20.21;63.86;98347.53;5051280;28;20189;-56
2023/09/14 01:01:19;;;;;;;6.35;3.22;;;;;;;20.24;63.56;98347.22;5051274;28;20256;-54
2023/09/14 01:03:45;;;;;;;6.57;3.83;;;;;;;20.01;64.12;98311.25;5035628;28;20708;-55
2023/09/14 01:06:11;;;;;;;4.28;3.33;;;;;;;20.20;63.79;98321.41;5035049;28;20311;-55
2023/09/14 01:08:37;;;;;;;6.07;3.28;;;;;;;20.05;64.31;98307.31;5071101;28;20184;-55
2023/09/14 01:11:02;;;;;;;8.05;3.35;;;;;;;20.03;65.07;98320.59;5070934;28;20206;-55
2023/09/14 01:13:55;;;;;;;6.03;2.78;;;;;;;20.00;64.45;98304.34;5071084;28;20185;-55
2023/09/14 01:16:32;;;;;;;6.60;3.20;;;;;;;20.19;64.21;98336.38;5070954;28;20200;-56
2023/09/14 01:19:32;;;;;;;8.15;3.42;;;;;;;19.99;64.33;98318.47;5070973;28;20193;-56
2023/09/14 01:21:59;;;;;;;10.93;3.45;;;;;;;20.10;65.09;98342.63;5071001;28;20608;-56
2023/09/14 01:24:56;;;;;;;9.75;3.85;;;;;;;20.19;64.49;98340.81;5070700;28;20713;-56
2023/09/14 01:27:22;;;;;;;14.68;4.15;;;;;;;19.99;65.54;98339.50;5029218;28;20193;-55
2023/09/14 01:29:48;;;;;;;9.40;3.78;;;;;;;19.93;66.10;98340.97;5030703;28;20198;-56
2023/09/14 01:32:14;;;;;;;8.45;3.50;;;;;;;19.54;66.35;98299.78;5030871;28;20610;-56
2023/09/14 01:34:39;;;;;;;7.07;3.85;;;;;;;19.49;66.61;98291.56;5039273;28;20286;-56
2023/09/14 01:37:05;;;;;;;9.05;4.03;;;;;;;19.73;66.52;98328.31;5050619;28;20240;-56
2023/09/14 01:39:32;;;;;;;9.70;3.25;;;;;;;19.63;66.92;98311.91;5050576;28;20745;-56
2023/09/14 01:41:58;;;;;;;7.13;3.42;;;;;;;19.67;66.64;98306.19;5050458;28;20609;-57
2023/09/14 01:44:29;;;;;;;10.75;3.78;;;;;;;19.67;67.06;98323.72;5050570;28;20189;-55
2023/09/14 01:46:55;;;;;;;9.50;3.15;;;;;;;19.48;66.35;98290.75;5050432;28;20189;-55
2023/09/14 01:49:21;;;;;;;6.63;3.40;;;;;;;19.63;66.38;98327.66;5050484;28;20181;-57
2023/09/14 01:51:47;;;;;;;9.82;3.28;;;;;;;19.85;64.75;98337.50;5050353;28;20232;-57
2023/09/14 01:54:12;;;;;;;8.75;3.67;;;;;;;19.65;66.16;98323.09;5050246;28;20196;-56
2023/09/14 01:56:37;;;;;;;7.93;3.42;;;;;;;19.68;65.94;98328.00;5050176;28;20209;-56
2023/09/14 01:59:03;;;;;;;9.63;3.28;;;;;;;19.70;66.83;98360.97;5080845;28;20195;-57
2023/09/14 02:01:28;;;;;;;5.93;3.60;;;;;;;19.55;67.27;98344.25;5092919;28;20171;-57
2023/09/14 02:03:54;;;;;;;7.40;4.13;;;;;;;19.37;67.89;98321.75;5093060;28;20174;-57
2023/09/14 02:06:19;;;;;;;11.88;4.20;;;;;;;19.45;68.28;98340.94;5092862;28;20233;-56
2023/09/14 02:08:45;;;;;;;10.88;3.22;;;;;;;19.55;68.38;98364.41;5092804;28;20171;-57
2023/09/14 02:11:13;;;;;;;10.13;3.60;;;;;;;19.36;69.64;98362.09;5092438;28;20684;-57
2023/09/14 02:13:39;;;;;;;7.35;4.10;;;;;;;19.16;69.26;98313.44;5092616;28;20241;-57
2023/09/14 02:16:04;;;;;;;6.13;3.70;;;;;;;19.43;69.12;98363.06;5092215;28;20204;-55
2023/09/14 02:18:29;;;;;;;9.80;3.42;;;;;;;19.52;68.06;98351.63;5092585;28;20172;-55
2023/09/14 02:20:55;;;;;;;15.50;3.85;;;;;;;19.64;68.02;98372.13;5092655;28;20176;-56
2023/09/14 02:23:20;;;;;;;9.25;3.38;;;;;;;19.52;68.98;98370.00;5092154;28;20172;-55
2023/09/14 02:25:46;;;;;;;7.25;3.67;;;;;;;19.28;69.17;98352.38;5092319;28;20179;-55
2023/09/14 02:28:13;;;;;;;8.52;4.07;;;;;;;19.19;69.67;98339.38;5092385;28;20225;-55
2023/09/14 02:30:39;;;;;;;7.28;3.25;;;;;;;19.34;69.68;98369.28;5092224;28;20178;-56
2023/09/14 02:33:06;;;;;;;7.25;3.28;;;;;;;19.21;69.95;98347.94;5092265;28;20223;-56
2023/09/14 02:35:32;;;;;;;6.18;3.60;;;;;;;19.11;70.49;98352.50;5092128;28;20294;-56
2023/09/14 02:37:57;;;;;;;9.15;3.88;;;;;;;19.10;69.55;98332.47;5092507;28;20259;-56
2023/09/14 02:40:23;;;;;;;9.52;3.85;;;;;;;19.21;69.71;98363.69;5092138;28;20629;-56
2023/09/14 02:42:48;;;;;;;8.90;4.07;;;;;;;19.12;69.82;98343.63;5092108;28;20186;-56
2023/09/14 02:45:13;;;;;;;5.28;3.35;;;;;;;19.16;69.62;98345.75;5091149;28;20602;-56
2023/09/14 02:47:39;;;;;;;7.72;3.30;;;;;;;19.30;69.68;98371.41;5091907;28;20191;-56
2023/09/14 02:50:04;;;;;;;8.07;3.78;;;;;;;19.05;69.77;98332.94;5091951;28;20543;-56
2023/09/14 02:52:30;;;;;;;8.23;3.75;;;;;;;19.06;70.02;98344.28;5091641;28;20235;-55
2023/09/14 02:54:55;;;;;;;8.65;3.15;;;;;;;18.75;72.65;98356.25;5091469;28;20610;-56
2023/09/14 02:57:21;;;;;;;12.07;3.83;;;;;;;18.62;73.84;98361.13;5091778;28;20305;-56
2023/09/14 02:59:46;;;;;;;7.82;3.75;;;;;;;18.71;73.46;98361.00;5091778;28;20178;-55
2023/09/14 03:02:11;;;;;;;9.20;4.03;;;;;;;18.53;73.89;98325.38;5091821;28;20225;-55
2023/09/14 03:04:37;;;;;;;8.95;4.30;;;;;;;18.48;74.35;98332.88;5091671;28;20598;-56
2023/09/14 03:07:02;;;;;;;10.07;4.28;;;;;;;18.57;74.43;98345.03;5091648;28;20179;-55
2023/09/14 03:09:28;;;;;;;7.28;3.85;;;;;;;18.59;74.04;98328.19;5091611;28;20658;-56
2023/09/14 03:11:54;;;;;;;10.80;4.40;;;;;;;18.75;74.60;98374.59;5091486;28;20192;-55
2023/09/14 03:14:19;;;;;;;11.23;4.28;;;;;;;18.90;73.78;98370.44;5048564;28;20223;-56
2023/09/14 03:16:45;;;;;;;14.55;6.03;;;;;;;18.86;72.92;98348.94;5048708;28;20213;-57
2023/09/14 03:19:10;;;;;;;5.45;4.13;;;;;;;19.02;72.31;98346.41;5048673;28;20608;-55
2023/09/14 03:21:35;;;;;;;11.10;3.33;;;;;;;19.04;71.54;98340.97;5048625;28;20177;-55
2023/09/14 03:24:01;;;;;;;7.70;4.13;;;;;;;19.23;71.06;98366.97;5048525;28;20270;-55
2023/09/14 03:26:27;;;;;;;8.70;3.55;;;;;;;19.02;71.00;98337.69;5048555;28;20268;-56
2023/09/14 03:28:53;;;;;;;10.10;3.60;;;;;;;19.18;70.42;98358.72;5048515;28;20189;-55
2023/09/14 03:31:18;;;;;;;17.15;3.90;;;;;;;19.03;70.18;98328.84;5048446;28;20185;-55
2023/09/14 03:33:47;;;;;;;9.32;3.80;;;;;;;19.36;69.97;98377.81;5048382;28;20231;-55
2023/09/14 03:36:13;;;;;;;10.07;3.55;;;;;;;19.37;69.26;98356.69;5048370;28;20244;-56
2023/09/14 03:38:39;;;;;;;8.77;4.30;;;;;;;19.55;69.27;98382.78;5048358;28;20173;-56
2023/09/14 03:41:04;;;;;;;9.88;4.30;;;;;;;19.38;70.17;98386.34;5048579;28;20247;-55
2023/09/14 03:43:30;;;;;;;8.70;4.18;;;;;;;19.29;71.05;98377.63;5048315;28;20691;-55
2023/09/14 03:45:56;;;;;;;12.25;4.25;;;;;;;19.06;72.01;98355.56;5080282;28;20195;-55
2023/09/14 03:48:22;;;;;;;8.35;4.47;;;;;;;18.84;73.94;98356.13;5091263;28;20214;-56
2023/09/14 03:50:48;;;;;;;10.05;3.90;;;;;;;18.66;74.85;98354.59;5090888;28;20200;-56
2023/09/14 03:53:13;;;;;;;6.25;4.70;;;;;;;18.58;74.86;98326.53;5090902;28;20199;-56
2023/09/14 03:55:39;;;;;;;5.15;3.92;;;;;;;18.71;73.71;98320.88;5090619;28;20214;-56
2023/09/14 03:58:04;;;;;;;6.85;4.10;;;;;;;18.69;73.06;98310.53;5090587;28;20194;-56
2023/09/14 04:00:29;;;;;;;9.30;4.13;;;;;;;18.62;73.55;98301.66;5047949;28;20185;-56
2023/09/14 04:02:55;;;;;;;14.13;4.38;;;;;;;18.88;72.90;98340.94;5048118;28;20216;-55
2023/09/14 04:05:20;;;;;;;9.93;3.97;;;;;;;18.83;72.68;98332.72;5048010;28;20671;-55
2023/09/14 04:07:46;;;;;;;9.18;4.40;;;;;;;18.67;74.77;98356.22;5048103;28;20177;-56
2023/09/14 04:10:12;;;;;;;8.10;4.30;;;;;;;18.57;75.46;98361.59;5047914;28;20208;-56
2023/09/14 04:12:41;;;;;;;9.68;4.13;;;;;;;18.45;76.09;98349.75;5047865;28;20219;-55
2023/09/14 04:15:07;;;;;;;10.02;4.32;;;;;;;18.42;75.70;98328.28;5047768;28;20212;-56
2023/09/14 04:17:33;;;;;;;11.77;4.30;;;;;;;18.69;74.87;98341.16;5047833;28;20559;-56
2023/09/14 04:19:58;;;;;;;9.05;4.10;;;;;;;18.64;74.89;98327.69;5047785;28;20196;-55
2023/09/14 04:22:24;;;;;;;10.23;4.78;;;;;;;18.78;76.10;98361.19;5048125;28;20775;-55
2023/09/14 04:24:50;;;;;;;10.77;4.05;;;;;;;18.77;76.47;98360.38;5047917;28;20649;-56
2023/09/14 04:27:15;;;;;;;10.27;4.57;;;;;;;18.66;77.33;98358.03;5047768;28;20189;-56
2023/09/14 04:29:41;;;;;;;11.80;5.00;;;;;;;18.75;77.54;98356.25;5047839;28;20183;-56
2023/09/14 04:32:06;;;;;;;7.65;4.00;;;;;;;18.69;77.61;98341.16;5080221;28;20654;-55
2023/09/14 04:34:32;;;;;;;9.98;4.50;;;;;;;18.87;77.84;98366.31;5090525;28;20172;-55
2023/09/14 04:36:57;;;;;;;12.20;5.03;;;;;;;18.94;77.62;98358.66;5090378;28;20203;-56
2023/09/14 04:39:23;;;;;;;11.85;4.50;;;;;;;18.93;77.63;98359.59;5090426;28;20175;-56
2023/09/14 04:41:49;;;;;;;11.55;6.68;;;;;;;18.87;77.33;98334.84;5090486;28;20172;-56
2023/09/14 04:44:15;;;;;;;7.90;4.60;;;;;;;19.24;77.63;98379.91;5090461;28;20237;-56
2023/09/14 04:46:40;;;;;;;9.98;5.05;;;;;;;18.90;78.40;98334.56;5090414;28;20179;-56
2023/09/14 04:49:06;;;;;;;7.47;4.45;;;;;;;19.07;77.55;98335.41;5090332;28;20250;-56
2023/09/14 04:51:32;;;;;;;8.60;4.07;;;;;;;19.10;76.72;98330.66;5090274;28;20271;-56
2023/09/14 04:53:58;;;;;;;7.75;4.25;;;;;;;19.29;76.84;98334.84;5090293;28;20184;-56
2023/09/14 04:56:27;;;;;;;10.60;4.95;;;;;;;19.33;76.79;98328.28;5090207;28;20200;-56
2023/09/14 04:58:52;;;;;;;28.85;7.18;;;;;;;19.49;76.72;98341.44;5067331;28;20267;-56
2023/09/14 05:01:17;;;;;;;16.20;5.38;;;;;;;19.69;76.65;98361.16;5067538;28;20276;-56
2023/09/14 05:03:43;;;;;;;10.70;4.70;;;;;;;19.58;76.53;98343.09;5067412;28;20585;-56
2023/09/14 05:06:08;;;;;;;11.63;5.05;;;;;;;19.68;76.48;98333.25;5067572;28;20172;-56
2023/09/14 05:08:34;;;;;;;17.58;6.05;;;;;;;19.88;76.79;98369.50;5068269;28;20267;-57
2023/09/14 05:11:01;;;;;;;15.98;5.55;;;;;;;19.75;77.08;98352.63;5070999;28;20192;-57
2023/09/14 05:13:26;;;;;;;17.92;5.95;;;;;;;19.87;76.45;98369.69;5071011;28;20249;-55
2023/09/14 05:15:52;;;;;;;14.50;5.93;;;;;;;19.82;76.58;98358.88;5070855;28;20216;-56
2023/09/14 05:18:17;;;;;;;15.57;5.82;;;;;;;19.88;76.87;98353.75;5070923;28;20213;-57
2023/09/14 05:20:44;;;;;;;14.70;5.70;;;;;;;20.01;76.19;98363.78;5071208;28;20567;-56
2023/09/14 05:23:09;;;;;;;10.52;6.00;;;;;;;20.14;75.87;98385.16;5071215;28;20187;-55
2023/09/14 05:25:35;;;;;;;12.82;5.25;;;;;;;20.17;76.65;98395.34;5070946;28;20188;-56
2023/09/14 05:28:00;;;;;;;16.42;6.40;;;;;;;20.18;75.01;98370.69;5071183;28;20176;-56
2023/09/14 05:30:26;;;;;;;14.65;6.28;;;;;;;20.18;74.89;98357.56;5087519;28;20308;-56
2023/09/14 05:32:51;;;;;;;11.45;6.40;;;;;;;20.37;74.49;98381.69;5093630;28;20168;-55
2023/09/14 05:35:18;;;;;;;17.48;7.30;;;;;;;20.54;73.94;98408.75;5093535;28;20560;-56
2023/09/14 05:37:44;;;;;;;17.98;7.18;;;;;;;20.35;74.66;98367.88;5093449;28;20654;-56
2023/09/14 05:40:10;;;;;;;13.73;6.28;;;;;;;20.51;75.34;98386.25;5093432;28;20175;-56
2023/09/14 05:42:38;;;;;;;15.52;6.30;;;;;;;20.64;75.26;98398.88;5093428;28;20237;-56
2023/09/14 05:45:06;;;;;;;16.02;6.22;;;;;;;20.71;75.19;98402.47;5093244;28;20180;-56
2023/09/14 05:47:32;;;;;;;12.80;5.20;;;;;;;20.75;74.34;98396.69;5093403;28;20187;-56
2023/09/14 05:49:57;;;;;;;11.95;6.03;;;;;;;20.58;74.05;98362.75;5093291;28;20175;-56
2023/09/14 05:52:23;;;;;;;9.93;5.88;;;;;;;20.69;73.49;98375.53;5093131;28;20249;-56
2023/09/14 05:54:49;;;;;;;13.57;5.65;;;;;;;20.77;73.07;98386.84;5093033;28;20259;-56
2023/09/14 05:57:14;;;;;;;14.73;6.22;;;;;;;20.78;72.18;98370.06;5093177;28;20586;-56
2023/09/14 05:59:40;;;;;;;10.35;6.18;;;;;;;21.05;72.54;98401.22;5093073;28;20642;-56
2023/09/14 06:02:06;;;;;;;10.82;5.97;;;;;;;21.08;72.49;98395.63;5093074;28;20180;-56
2023/09/14 06:04:32;;;;;;;11.45;5.63;;;;;;;21.07;71.88;98375.59;5093062;28;20172;-56
2023/09/14 06:06:57;;;;;;;7.45;5.50;;;;;;;21.08;71.56;98361.44;5093011;28;20626;-56
2023/09/14 06:09:24;;;;;;;14.63;6.78;;;;;;;21.35;71.42;98394.34;5092955;28;20536;-56
2023/09/14 06:11:50;;;;;;;14.35;5.82;;;;;;;21.27;71.43;98378.63;5049799;28;20217;-56
2023/09/14 06:14:15;;;;;;;14.43;6.43;;;;;;;21.21;70.88;98368.78;5050032;28;20228;-56
2023/09/14 06:16:41;;;;;;;13.90;6.68;;;;;;;21.35;70.59;98381.19;5049978;28;20263;-56
2023/09/14 06:19:06;;;;;;;16.13;6.57;;;;;;;21.53;69.53;98401.00;5049978;28;20256;-56
2023/09/14 06:21:33;;;;;;;13.02;6.50;;;;;;;21.55;69.13;98375.31;5049926;28;20189;-56
2023/09/14 06:23:58;;;;;;;15.50;6.10;;;;;;;21.89;68.07;98404.75;5049982;28;20181;-56
2023/09/14 06:26:27;;;;;;;17.58;6.10;;;;;;;21.93;67.17;98373.59;5049921;28;20185;-56
2023/09/14 06:28:53;;;;;;;14.85;5.72;;;;;;;22.16;65.69;98406.03;5049787;28;20679;-56
2023/09/14 06:31:18;;;;;;;12.85;5.82;;;;;;;21.99;64.88;98376.34;5049732;28;20218;-56
2023/09/14 06:33:44;;;;;;;11.77;5.47;;;;;;;22.16;64.61;98401.56;5049798;28;20244;-56
2023/09/14 06:36:09;;;;;;;10.30;4.55;;;;;;;22.29;64.56;98414.13;5049699;28;20207;-56
2023/09/14 06:38:34;;;;;;;10.65;4.75;;;;;;;22.33;63.97;98412.78;5049823;28;20608;-56
2023/09/14 06:41:00;;;;;;;14.98;5.25;;;;;;;22.41;64.23;98416.19;5049619;28;20651;-56
2023/09/14 06:43:25;;;;;;;15.27;5.53;;;;;;;22.28;64.04;98386.13;5064653;28;20180;-56
2023/09/14 06:45:51;;;;;;;10.23;4.82;;;;;;;22.37;63.94;98398.25;5069473;28;20608;-56
2023/09/14 06:48:16;;;;;;;9.57;5.05;;;;;;;22.36;63.44;98393.97;5069533;28;20180;-56
2023/09/14 06:50:41;;;;;;;17.20;5.05;;;;;;;22.66;63.52;98425.53;5069429;28;20599;-56
2023/09/14 06:53:08;;;;;;;11.82;5.90;;;;;;;22.70;62.36;98415.41;5069347;28;20255;-56
2023/09/14 06:55:37;;;;;;;14.18;5.55;;;;;;;22.72;62.37;98429.28;5069265;28;20682;-56
2023/09/14 06:58:03;;;;;;;14.65;5.72;;;;;;;22.76;62.79;98430.53;5069218;28;20181;-56
2023/09/14 07:00:28;;;;;;;12.55;5.40;;;;;;;22.61;62.44;98403.34;5069262;28;20231;-56
2023/09/14 07:02:54;;;;;;;16.80;5.65;;;;;;;22.75;62.52;98405.16;5069048;28;20184;-56
2023/09/14 07:05:19;;;;;;;15.77;5.88;;;;;;;22.68;62.22;98401.59;5068972;28;20293;-56
2023/09/14 07:07:44;;;;;;;13.05;5.50;;;;;;;22.66;62.34;98395.69;5069118;28;20173;-56
2023/09/14 07:10:10;;;;;;;17.52;5.97;;;;;;;22.95;62.20;98425.53;5068839;28;20189;-56
2023/09/14 07:12:36;;;;;;;21.92;6.03;;;;;;;22.95;62.32;98417.63;5068828;28;20726;-56
2023/09/14 07:15:02;;;;;;;14.30;6.15;;;;;;;22.94;62.40;98396.69;5085896;28;20275;-56
2023/09/14 07:17:28;;;;;;;20.77;6.30;;;;;;;23.23;62.23;98429.19;5091629;28;20263;-56
2023/09/14 07:19:58;;;;;;;17.15;6.68;;;;;;;23.16;62.42;98398.41;5091150;28;20196;-56
2023/09/14 07:22:23;;;;;;;13.93;5.68;;;;;;;23.39;61.79;98420.25;5091508;28;20187;-56
2023/09/14 07:24:48;;;;;;;15.52;6.07;;;;;;;23.34;62.49;98418.16;5091519;28;20172;-56
2023/09/14 07:27:15;;;;;;;13.93;6.38;;;;;;;23.22;62.95;98416.16;5091399;28;20180;-56
2023/09/14 07:29:40;;;;;;;24.40;7.38;;;;;;;23.08;62.57;98394.03;5091375;28;20281;-56
2023/09/14 07:32:06;;;;;;;24.50;7.43;;;;;;;22.70;63.67;98383.75;5090861;28;20176;-56
2023/09/14 07:34:31;;;;;;;12.43;6.15;;;;;;;23.05;63.63;98419.97;5091400;28;20211;-56
2023/09/14 07:36:57;;;;;;;19.52;7.03;;;;;;;23.17;62.93;98403.53;5091269;28;20200;-55
2023/09/14 07:39:22;;;;;;;22.08;6.20;;;;;;;23.44;61.68;98425.81;5038725;28;20302;-56
2023/09/14 07:41:48;;;;;;;16.70;6.00;;;;;;;23.53;61.23;98414.13;5091191;28;20206;-56
2023/09/14 07:44:13;;;;;;;16.85;6.43;;;;;;;23.63;61.04;98412.81;5090911;28;20172;-56
2023/09/14 07:46:41;;;;;;;16.92;5.78;;;;;;;23.85;59.59;98423.22;5091070;28;20653;-56
2023/09/14 07:49:08;;;;;;;19.95;6.45;;;;;;;23.95;59.58;98433.50;5028323;28;20212;-56
2023/09/14 07:51:33;;;;;;;11.57;5.97;;;;;;;23.83;59.21;98395.34;5028250;28;20217;-56
2023/09/14 07:53:59;;;;;;;11.25;5.20;;;;;;;24.08;59.23;98429.16;5028263;28;20196;-57
2023/09/14 07:56:25;;;;;;;14.40;6.07;;;;;;;24.04;58.78;98419.97;5028217;28;20244;-56
2023/09/14 07:58:52;;;;;;;13.85;5.50;;;;;;;24.00;58.06;98388.81;5028272;28;20650;-56
2023/09/14 08:01:18;;;;;;;11.13;5.65;;;;;;;24.23;58.15;98419.34;5028335;28;20264;-56
2023/09/14 08:03:44;;;;;;;12.48;5.65;;;;;;;24.20;57.89;98398.56;5028561;28;20277;-56
2023/09/14 08:06:10;;;;;;;14.35;6.13;;;;;;;24.01;58.24;98397.59;5028177;28;20280;-56
2023/09/14 08:08:35;;;;;;;12.10;6.15;;;;;;;23.58;59.24;98382.66;5028531;28;20676;-57
2023/09/14 08:11:06;;;;;;;15.35;6.70;;;;;;;23.80;59.79;98414.22;5027716;28;20233;-57
2023/09/14 08:13:32;;;;;;;15.13;6.10;;;;;;;23.75;60.66;98398.09;5028215;28;20312;-57
2023/09/14 08:16:03;;;;;;;17.33;6.70;;;;;;;23.75;59.73;98388.34;5028317;28;20271;-57
2023/09/14 08:18:29;;;;;;;20.80;6.22;;;;;;;23.93;60.38;98395.88;5028302;28;20232;-57
2023/09/14 08:20:54;;;;;;;29.73;7.35;;;;;;;24.06;59.65;98417.16;5062412;28;20223;-57
2023/09/14 08:23:20;;;;;;;21.60;6.95;;;;;;;23.98;60.42;98377.63;5069946;28;20239;-57
2023/09/14 08:25:46;;;;;;;15.63;6.53;;;;;;;24.19;60.03;98386.34;5070518;28;20672;-57
2023/09/14 08:28:19;;;;;;;12.52;6.55;;;;;;;24.04;59.04;98374.22;5070525;28;20180;-57
2023/09/14 08:30:45;;;;;;;19.48;6.72;;;;;;;23.96;59.05;98366.41;5070481;28;20204;-57
2023/09/14 08:33:11;;;;;;;12.00;6.50;;;;;;;24.06;59.38;98384.63;5067799;28;20184;-55
2023/09/14 08:35:37;;;;;;;15.93;6.40;;;;;;;24.31;59.77;98399.88;5067826;28;20208;-56
2023/09/14 08:38:06;;;;;;;19.38;6.50;;;;;;;24.36;58.73;98371.84;5067880;28;20662;-56
2023/09/14 08:40:33;;;;;;;12.43;5.97;;;;;;;24.52;58.07;98370.72;5067932;28;20180;-56
2023/09/14 08:43:02;;;;;;;14.13;6.35;;;;;;;24.63;57.13;98363.13;5067876;28;20216;-56
2023/09/14 08:45:31;;;;;;;16.58;6.45;;;;;;;24.85;57.14;98391.13;5071799;28;20610;-56
2023/09/14 08:47:59;;;;;;;9.95;6.28;;;;;;;24.81;57.26;98371.34;5071772;28;20222;-56
2023/09/14 08:50:30;;;;;;;15.85;6.85;;;;;;;24.55;57.45;98365.06;5071658;28;20211;-56
2023/09/14 08:52:55;;;;;;;10.32;6.10;;;;;;;24.57;57.57;98357.78;5071686;28;20216;-56
2023/09/14 08:55:23;;;;;;;16.75;6.78;;;;;;;24.69;57.57;98351.75;5071566;28;20228;-56
2023/09/14 08:57:50;;;;;;;14.88;6.70;;;;;;;24.82;57.70;98362.41;5071523;28;20224;-56
2023/09/14 09:00:17;;;;;;;17.27;6.15;;;;;;;25.01;56.61;98374.91;5071528;28;20666;-56
2023/09/14 09:02:44;;;;;;;16.00;6.78;;;;;;;25.09;57.37;98372.09;5071417;28;20231;-56
2023/09/14 09:05:14;;;;;;;15.35;6.43;;;;;;;25.00;56.54;98333.56;5073329;28;20192;-56
2023/09/14 09:07:41;;;;;;;15.80;6.70;;;;;;;25.17;55.71;98349.91;5074022;28;20177;-56
2023/09/14 09:10:23;;;;;;;8.52;5.20;;;;;;;25.29;55.59;98343.91;5073845;28;20665;-56
2023/09/14 09:13:02;;;;;;;9.55;5.35;;;;;;;25.33;55.02;98334.53;5073502;28;20191;-56
2023/09/14 09:15:28;;;;;;;13.90;5.93;;;;;;;25.39;55.00;98338.22;5073618;28;20544;-57
2023/09/14 09:17:54;;;;;;;14.23;6.22;;;;;;;25.69;54.59;98369.47;5073404;28;20609;-57
2023/09/14 09:20:24;;;;;;;14.65;5.85;;;;;;;25.68;54.42;98359.91;5073719;28;20251;-57
2023/09/14 09:22:56;;;;;;;10.50;5.78;;;;;;;25.63;54.28;98327.06;5073583;28;20245;-57
2023/09/14 09:25:22;;;;;;;12.85;5.80;;;;;;;25.66;53.82;98319.50;5073222;28;20556;-57
2023/09/14 09:27:58;;;;;;;9.57;5.90;;;;;;;25.96;53.44;98349.94;5073539;28;20286;-56
2023/09/14 09:30:29;;;;;;;12.10;6.15;;;;;;;25.90;52.73;98344.66;5073515;28;20168;-57
2023/09/14 09:32:55;;;;;;;14.05;5.57;;;;;;;25.87;52.60;98314.03;5073405;28;20176;-56
2023/09/14 09:35:23;;;;;;;14.27;5.72;;;;;;;26.13;52.77;98345.06;5073317;28;20682;-56
2023/09/14 09:37:50;;;;;;;13.10;5.70;;;;;;;26.16;52.70;98342.81;5073365;28;20185;-56
2023/09/14 09:40:19;;;;;;;17.00;5.60;;;;;;;26.32;52.54;98339.75;5073290;28;20208;-57
2023/09/14 09:42:45;;;;;;;15.80;5.43;;;;;;;26.35;52.84;98320.75;5073252;28;20172;-57
2023/09/14 09:45:13;;;;;;;14.68;5.22;;;;;;;26.58;52.34;98330.97;5073141;28;20607;-57
2023/09/14 09:47:39;;;;;;;10.40;5.18;;;;;;;26.34;51.12;98297.91;5073225;28;20259;-56
2023/09/14 09:50:09;;;;;;;11.57;5.30;;;;;;;26.27;50.57;98301.59;5073191;28;20177;-57
2023/09/14 09:52:35;;;;;;;12.02;5.00;;;;;;;26.46;50.59;98306.88;5072981;28;20181;-57
2023/09/14 09:55:01;;;;;;;12.85;5.40;;;;;;;26.82;49.73;98320.47;5072565;28;20605;-57
2023/09/14 09:57:32;;;;;;;13.38;4.95;;;;;;;26.86;49.35;98302.28;5073259;28;20180;-57
2023/09/14 09:59:58;;;;;;;10.52;5.10;;;;;;;26.96;49.32;98292.84;5072987;28;20309;-57
2023/09/14 10:02:33;;;;;;;15.10;5.32;;;;;;;27.10;48.89;98289.09;5072967;28;20588;-56
2023/09/14 10:04:58;;;;;;;11.68;5.07;;;;;;;27.15;48.29;98286.63;5070172;28;20272;-57
2023/09/14 10:07:24;;;;;;;8.95;5.13;;;;;;;27.42;46.51;98309.41;5030186;28;20186;-56
2023/09/14 10:09:53;;;;;;;9.43;5.57;;;;;;;27.38;46.71;98286.94;5030184;28;20283;-56
2023/09/14 10:12:24;;;;;;;14.50;4.88;;;;;;;27.69;46.31;98313.50;5029972;28;20312;-56
2023/09/14 10:14:53;;;;;;;15.07;4.88;;;;;;;27.58;46.66;98270.84;5030184;28;20189;-57
2023/09/14 10:17:22;;;;;;;13.85;4.68;;;;;;;27.64;46.03;98281.44;5030095;28;20237;-57
2023/09/14 10:19:48;;;;;;;14.95;5.13;;;;;;;27.65;46.12;98272.41;5030180;28;20664;-57
2023/09/14 10:22:19;;;;;;;18.02;5.75;;;;;;;27.93;46.18;98291.47;5030070;28;20196;-56
2023/09/14 10:24:45;;;;;;;13.35;5.20;;;;;;;27.93;45.25;98272.84;5030062;28;20195;-57
2023/09/14 10:27:13;;;;;;;13.38;5.00;;;;;;;28.14;45.85;98275.13;4990497;28;20195;-57
2023/09/14 10:29:41;;;;;;;10.05;4.85;;;;;;;28.20;45.33;98274.25;4990454;28;20183;-56
2023/09/14 10:32:10;;;;;;;20.23;5.68;;;;;;;28.35;45.03;98277.38;4990549;28;20192;-56
2023/09/14 10:34:39;;;;;;;19.35;5.47;;;;;;;28.63;44.96;98283.00;4990586;28;20262;-57
2023/09/14 10:37:06;;;;;;;12.90;5.30;;;;;;;28.77;44.78;98281.84;4990290;28;20210;-57
2023/09/14 10:39:33;;;;;;;13.77;5.40;;;;;;;29.00;43.29;98284.66;5028697;28;20222;-57
2023/09/14 10:41:59;;;;;;;12.27;4.97;;;;;;;29.17;43.03;98291.00;5029759;28;20273;-56
2023/09/14 10:44:27;;;;;;;7.43;5.05;;;;;;;29.39;42.38;98283.31;5029574;28;20726;-57
2023/09/14 10:46:56;;;;;;;14.77;5.00;;;;;;;29.35;42.62;98250.13;5029638;28;20221;-57
2023/09/14 10:49:31;;;;;;;14.57;5.22;;;;;;;29.48;41.85;98257.94;5029702;28;20182;-56
2023/09/14 10:51:57;;;;;;;8.45;4.43;;;;;;;29.61;41.40;98255.13;5029589;28;20198;-56
2023/09/14 10:54:27;;;;;;;7.78;5.05;;;;;;;29.89;42.00;98285.44;5029541;28;20186;-57
2023/09/14 10:57:13;;;;;;;13.27;4.53;;;;;;;29.86;41.37;98267.19;5029436;28;20214;-56
2023/09/14 10:59:50;;;;;;;11.50;4.90;;;;;;;29.81;41.26;98271.63;5051712;28;20213;-56
2023/09/14 11:02:41;;;;;;;13.38;5.35;;;;;;;29.97;40.69;98279.75;5051640;28;20177;-56
2023/09/14 11:05:17;;;;;;;10.32;5.07;;;;;;;29.85;40.69;98262.13;5051311;28;20557;-56
2023/09/14 11:07:46;;;;;;;10.88;4.78;;;;;;;29.81;40.94;98261.75;5050897;28;20501;-56
2023/09/14 11:10:19;;;;;;;13.18;5.13;;;;;;;29.94;41.26;98266.88;5051492;28;20243;-56
2023/09/14 11:12:44;;;;;;;9.40;4.85;;;;;;;30.02;41.04;98257.72;5091715;28;20267;-56
2023/09/14 11:15:32;;;;;;;10.68;5.50;;;;;;;30.15;40.59;98260.97;5091352;28;20250;-56
2023/09/14 11:17:58;;;;;;;15.52;4.68;;;;;;;30.38;39.23;98273.53;5029249;28;20273;-56
2023/09/14 11:20:24;;;;;;;9.75;4.65;;;;;;;30.42;39.94;98286.16;5029001;28;20719;-56
2023/09/14 11:22:51;;;;;;;10.90;4.47;;;;;;;30.36;40.90;98276.41;5028812;28;20216;-56
2023/09/14 11:25:26;;;;;;;12.20;4.95;;;;;;;30.40;40.45;98280.25;5028938;28;20204;-56
2023/09/14 11:27:52;;;;;;;7.78;4.57;;;;;;;30.32;40.42;98269.91;5028766;28;20177;-56